Hauptseite
METAR-TAF:

METAR-TAF

Flughäfen :

Newquay Cornwall, England

Newquay Cornwall Airport

Breite: 50-26N, Länge: 005-00W, Höhe: 119 m

Beobachtung

Neuester Wetterbericht von vor 35 Minuten, um 06:20 UTC
Wind 17 kt aus West
Temperatur 10°C
Luftfeuchtigkeit 71%
Luftdruck 1007 hPa
Sichtweite 10 km oder mehr
Leicht bewölkt in der Höhe von 3000 ft

METAR: EGHQ 200620Z 27017KT 9999 FEW030 10/05 Q1007

Zeit: 07:55 (06:55 UTC)

Prognose

Neuester Wetterbericht von vor 35 Minuten, um 06:20 UTC
Gültige Prognose vom 20 um 06 UTC bis 20 um 15 UTC
Wind 16 kt aus West
Sichtweite 10 km oder mehr
Aufgelockert bewölkt in der Höhe von 3000 ft
Übergehend zu
vom 20 um 09 UTC bis 20 um 12 UTC
Wind 12 kt aus Süd
Übergehend zu
vom 20 um 12 UTC bis 20 um 15 UTC
Wind 16 kt aus Süd, Böen bis zu 28 kt

TAF: EGHQ 200620Z 2006/2015 28016KT 9999 SCT030 BECMG 2009/2012 19012KT BECMG 2012/2015 17016G28KT

Wetterbeobachtungen und Prognosen von mehr als 4000 Flughäfen (METAR und TAF Bericht).

Die verfügbaren Stationen werden durch gelbe und rote Markierungen auf der Karte dargestellt.

Führen Sie die Maus auf sie, um den Namen der Station zu sehen.

Darauf klicken, um die Beobachtung von Wetterbeobachtungen und Prognosen zu sehen.

Um die Karte zu ändern : klicken Sie auf den grünen Tasten mit einem schwarzen Kreuz Zum Vergrößern, auf den grünen Button mit einem Gedankenstrich zu verkleinern, oder auf die grünen Pfeile für benachbarte Karten.


METAR-TAF: